createdAt,value
2023-01-20T00:02:17.262Z,11.71
2023-01-20T00:07:19.387Z,11.69
2023-01-20T00:12:21.558Z,12.24
2023-01-20T00:17:23.752Z,12.93
2023-01-20T00:22:25.809Z,13.38
2023-01-20T00:27:27.972Z,13.78
2023-01-20T00:32:30.160Z,14.03
2023-01-20T00:37:32.439Z,14.25
2023-01-20T00:42:34.476Z,14.31
2023-01-20T00:47:36.607Z,14.33
2023-01-20T00:52:38.723Z,14.46
2023-01-20T00:57:40.767Z,14.49
2023-01-20T01:02:42.988Z,14.34
2023-01-20T01:07:45.278Z,14.46
2023-01-20T01:12:47.335Z,14.61
2023-01-20T01:17:49.544Z,14.45
2023-01-20T01:22:51.847Z,14.57
2023-01-20T01:27:53.897Z,14.42
2023-01-20T01:32:55.979Z,14.32
2023-01-20T01:37:58.025Z,14.36
2023-01-20T01:43:00.455Z,14.47
2023-01-20T01:48:09.523Z,14.59
2023-01-20T01:53:13.854Z,14.70
2023-01-20T01:58:19.708Z,14.79
2023-01-20T02:03:23.036Z,15.00
2023-01-20T02:08:26.431Z,14.89
2023-01-20T02:13:28.537Z,14.31
2023-01-20T02:18:46.682Z,14.41
2023-01-20T02:24:24.078Z,14.73
2023-01-20T02:29:44.333Z,14.84
2023-01-20T02:34:49.319Z,14.49
2023-01-20T02:40:26.248Z,13.90
2023-01-20T02:45:36.741Z,14.11
2023-01-20T02:51:09.033Z,13.89
2023-01-20T02:56:13.040Z,13.96
2023-01-20T03:01:21.204Z,14.22
2023-01-20T03:06:27.317Z,14.18
2023-01-20T03:11:36.213Z,14.59
2023-01-20T03:16:39.475Z,14.36
2023-01-20T03:21:41.794Z,14.80
2023-01-20T03:26:44.071Z,14.76
2023-01-20T03:31:53.659Z,14.82
2023-01-20T03:36:58.105Z,14.50
2023-01-20T03:42:21.802Z,14.62
2023-01-20T03:47:41.534Z,14.65
2023-01-20T03:52:56.465Z,14.51
2023-01-20T03:58:06.145Z,14.48
2023-01-20T04:03:15.816Z,14.46
2023-01-20T04:08:22.559Z,14.71
2023-01-20T04:13:24.785Z,14.78
2023-01-20T04:18:27.090Z,14.78
2023-01-20T04:23:37.334Z,14.74
2023-01-20T04:28:39.439Z,14.63
2023-01-20T04:33:42.122Z,14.73
2023-01-20T04:38:44.227Z,14.76
2023-01-20T04:43:47.177Z,14.84
2023-01-20T04:48:49.275Z,14.65
2023-01-20T04:53:51.410Z,14.41
2023-01-20T04:58:53.877Z,14.58
2023-01-20T05:03:55.981Z,14.27
2023-01-20T05:08:58.136Z,14.56
2023-01-20T05:14:00.227Z,14.65
2023-01-20T05:19:02.445Z,14.38
2023-01-20T05:24:05.016Z,13.77
2023-01-20T05:29:07.144Z,12.82
2023-01-20T05:34:12.337Z,13.55
2023-01-20T05:39:14.467Z,13.43
2023-01-20T05:44:16.911Z,12.83
2023-01-20T05:49:19.140Z,13.04
2023-01-20T05:54:21.223Z,13.23
2023-01-20T05:59:24.315Z,12.31
2023-01-20T06:04:26.407Z,11.40
2023-01-20T06:09:28.579Z,11.61
2023-01-20T06:14:30.950Z,11.33
2023-01-20T06:19:33.098Z,11.26
2023-01-20T06:24:35.180Z,11.42
2023-01-20T06:29:37.464Z,11.81
2023-01-20T06:34:39.528Z,12.11
2023-01-20T06:39:41.730Z,12.06
2023-01-20T06:44:43.804Z,11.63
2023-01-20T06:49:45.965Z,11.68
2023-01-20T06:54:48.211Z,11.90
2023-01-20T06:59:50.286Z,11.85
2023-01-20T07:04:53.277Z,11.79
2023-01-20T07:09:55.933Z,11.92
2023-01-20T07:14:58.022Z,11.76
2023-01-20T07:20:00.131Z,11.69
2023-01-20T07:25:02.314Z,11.68
2023-01-20T07:30:04.701Z,11.13
2023-01-20T07:35:07.085Z,10.91
2023-01-20T07:40:11.475Z,11.06
2023-01-20T07:45:13.992Z,10.96
2023-01-20T07:50:16.695Z,11.10
2023-01-20T07:55:18.827Z,10.74
2023-01-20T08:00:21.200Z,11.43
2023-01-20T08:05:23.292Z,11.64
2023-01-20T08:10:25.471Z,11.88
2023-01-20T08:15:27.661Z,12.21
2023-01-20T08:20:29.777Z,13.13
2023-01-20T08:25:31.918Z,13.23
2023-01-20T08:30:34.694Z,12.23
2023-01-20T08:35:36.976Z,12.37
2023-01-20T08:40:42.621Z,12.81
2023-01-20T08:45:44.836Z,12.34
2023-01-20T08:50:46.966Z,12.88
2023-01-20T08:55:59.639Z,12.44
2023-01-20T09:01:02.678Z,12.48
2023-01-20T09:06:05.372Z,12.46
2023-01-20T09:11:16.442Z,12.72
2023-01-20T09:16:20.052Z,12.76
2023-01-20T09:21:22.478Z,12.99
2023-01-20T09:26:35.226Z,13.15
2023-01-20T09:31:46.390Z,13.38
2023-01-20T09:36:55.943Z,13.54
2023-01-20T09:42:23.917Z,13.73
2023-01-20T09:47:36.790Z,14.05
2023-01-20T09:52:57.661Z,13.82
2023-01-20T09:58:28.685Z,13.77
2023-01-20T10:03:42.227Z,13.26
2023-01-20T10:09:05.636Z,13.60
2023-01-20T10:14:35.619Z,13.54
2023-01-20T10:19:45.636Z,13.56
2023-01-20T10:24:53.302Z,13.66
2023-01-20T10:30:04.215Z,13.66
2023-01-20T10:35:23.504Z,13.51
2023-01-20T10:40:37.428Z,13.30
2023-01-20T10:45:46.931Z,13.25
2023-01-20T10:51:10.539Z,13.43
2023-01-20T10:56:25.419Z,13.51
2023-01-20T11:01:27.754Z,14.36
2023-01-20T11:06:29.935Z,14.58
2023-01-20T11:11:32.229Z,14.90
2023-01-20T11:16:34.567Z,14.34
2023-01-20T11:21:37.556Z,14.48
2023-01-20T11:26:39.660Z,14.55
2023-01-20T11:31:45.842Z,14.40
2023-01-20T11:36:49.305Z,14.25
2023-01-20T11:42:17.418Z,13.44
2023-01-20T11:47:33.707Z,13.10
2023-01-20T11:52:43.023Z,12.92
2023-01-20T11:57:47.579Z,13.41
2023-01-20T12:03:03.694Z,12.96
2023-01-20T12:08:27.118Z,13.06
2023-01-20T12:13:55.792Z,12.82
2023-01-20T12:19:07.164Z,12.82
2023-01-20T12:24:14.890Z,12.96
2023-01-20T12:29:45.020Z,13.01
2023-01-20T12:34:47.219Z,13.22
2023-01-20T12:39:58.435Z,12.80
2023-01-20T12:45:09.321Z,13.07
2023-01-20T12:50:32.463Z,13.62
2023-01-20T12:55:58.293Z,13.25
2023-01-20T13:01:18.810Z,13.24
2023-01-20T13:06:31.716Z,13.43
2023-01-20T13:12:24.967Z,13.76
2023-01-20T13:17:45.650Z,13.52
2023-01-20T13:22:48.589Z,13.67
2023-01-20T13:27:54.736Z,13.57
2023-01-20T13:33:07.154Z,13.74
2023-01-20T13:38:26.048Z,13.21
2023-01-20T13:43:36.704Z,13.27
2023-01-20T13:48:59.578Z,13.51
2023-01-20T13:54:28.382Z,13.93
2023-01-20T13:59:30.482Z,13.41
2023-01-20T14:04:34.459Z,13.45
2023-01-20T14:09:37.659Z,13.64
2023-01-20T14:14:42.491Z,13.82
2023-01-20T14:19:50.808Z,13.36
2023-01-20T14:24:57.587Z,13.60
2023-01-20T14:30:16.300Z,13.69
2023-01-20T14:35:25.212Z,13.76
2023-01-20T14:40:33.282Z,14.12
2023-01-20T14:45:37.406Z,13.85
2023-01-20T14:50:41.227Z,13.76
2023-01-20T14:55:57.078Z,13.60
2023-01-20T15:01:02.765Z,14.42
2023-01-20T15:06:13.745Z,14.27
2023-01-20T15:11:19.030Z,13.80
2023-01-20T15:16:28.032Z,12.37
2023-01-20T15:21:30.227Z,12.18
2023-01-20T15:26:32.679Z,11.54
2023-01-20T15:31:34.784Z,11.38
2023-01-20T15:36:39.163Z,10.98
2023-01-20T15:41:41.528Z,11.09
2023-01-20T15:46:43.700Z,11.03
2023-01-20T15:51:45.935Z,10.73
2023-01-20T15:56:48.122Z,10.13
2023-01-20T16:01:53.440Z,10.06
2023-01-20T16:06:56.169Z,9.98
2023-01-20T16:11:58.318Z,9.60
2023-01-20T16:17:00.437Z,9.90
2023-01-20T16:22:03.429Z,10.28
2023-01-20T16:27:16.951Z,10.06
2023-01-20T16:32:22.414Z,9.75
2023-01-20T16:37:24.729Z,10.81
2023-01-20T16:42:26.760Z,10.89
2023-01-20T16:47:28.805Z,10.94
2023-01-20T16:52:30.893Z,10.64
2023-01-20T16:57:32.960Z,11.53
2023-01-20T17:02:35.055Z,11.61
2023-01-20T17:07:37.308Z,11.85
2023-01-20T17:12:39.373Z,11.84
2023-01-20T17:17:41.959Z,11.43
2023-01-20T17:22:44.066Z,11.14
2023-01-20T17:27:46.218Z,10.96
2023-01-20T17:32:49.006Z,11.02
2023-01-20T17:37:51.066Z,10.76
2023-01-20T17:42:54.032Z,11.05
2023-01-20T17:47:56.143Z,11.37
2023-01-20T17:52:58.323Z,11.63
2023-01-20T17:58:00.498Z,11.85
2023-01-20T18:03:05.290Z,12.19
2023-01-20T18:08:07.520Z,12.20
2023-01-20T18:13:09.567Z,12.55
2023-01-20T18:18:11.612Z,12.69
2023-01-20T18:23:13.883Z,13.01
2023-01-20T18:28:16.044Z,12.67
2023-01-20T18:33:18.403Z,12.94
2023-01-20T18:38:20.626Z,12.98
2023-01-20T18:43:22.707Z,12.67
2023-01-20T18:48:25.761Z,12.74
2023-01-20T18:53:29.611Z,12.45
2023-01-20T18:58:31.746Z,12.54
2023-01-20T19:03:35.384Z,12.31
2023-01-20T19:08:38.741Z,12.11
2023-01-20T19:13:42.176Z,12.00
2023-01-20T19:18:49.269Z,11.91
2023-01-20T19:23:54.429Z,11.51
2023-01-20T19:29:11.353Z,11.83
2023-01-20T19:34:13.579Z,11.90
2023-01-20T19:39:16.462Z,11.82
2023-01-20T19:44:19.002Z,11.89
2023-01-20T19:49:21.152Z,11.80
2023-01-20T19:54:24.587Z,11.74
2023-01-20T19:59:26.645Z,11.81
2023-01-20T20:04:28.851Z,11.82
2023-01-20T20:09:30.987Z,11.72
2023-01-20T20:14:34.029Z,11.68
2023-01-20T20:19:36.199Z,11.50
2023-01-20T20:24:38.320Z,11.66
2023-01-20T20:29:40.413Z,11.48
2023-01-20T20:34:43.020Z,11.64
2023-01-20T20:39:46.062Z,11.48
2023-01-20T20:44:48.254Z,11.54
2023-01-20T20:49:50.450Z,11.44
2023-01-20T20:54:54.292Z,11.47
2023-01-20T20:59:59.631Z,11.23
2023-01-20T21:05:02.182Z,11.53
2023-01-20T21:10:05.227Z,11.43
2023-01-20T21:15:11.685Z,11.33
2023-01-20T21:20:14.007Z,11.32
2023-01-20T21:25:18.006Z,11.27
2023-01-20T21:30:20.697Z,11.28
2023-01-20T21:35:22.894Z,10.83
2023-01-20T21:40:25.006Z,11.05
2023-01-20T21:45:27.327Z,10.97
2023-01-20T21:50:48.006Z,11.06
2023-01-20T21:55:50.152Z,11.16
2023-01-20T22:00:55.665Z,10.97
2023-01-20T22:05:57.982Z,10.74
2023-01-20T22:11:03.589Z,10.62
2023-01-20T22:16:06.269Z,10.49
2023-01-20T22:21:08.363Z,10.60
2023-01-20T22:26:10.549Z,10.29
2023-01-20T22:31:17.396Z,10.36
2023-01-20T22:36:20.581Z,10.11
2023-01-20T22:41:22.701Z,10.15
2023-01-20T22:46:27.267Z,10.13
2023-01-20T22:51:30.453Z,10.12
2023-01-20T22:56:33.350Z,9.61
2023-01-20T23:01:36.049Z,9.89
2023-01-20T23:06:38.375Z,9.92
2023-01-20T23:11:41.316Z,10.01
2023-01-20T23:16:44.015Z,10.10
2023-01-20T23:21:46.200Z,10.01
2023-01-20T23:26:48.308Z,10.12
2023-01-20T23:31:50.474Z,10.12
2023-01-20T23:36:52.717Z,10.20
2023-01-20T23:41:55.264Z,10.23
2023-01-20T23:46:57.412Z,10.39
2023-01-20T23:51:59.458Z,10.39
2023-01-20T23:57:01.730Z,10.50
